Terminal Aerodrome Forecast
Issued by NWS Wilmington, OH

Current Version | Previous Version | Graphics & Text | Print | Product List | Glossary On
Versions: 1 2 3 4 5 6 7 8 9 10 11 12 13 14 15 16 17 18 19 20 21 22 23 24 25 26 27 28
813
FTUS41 KILN 190546
TAFCVG
TAF
KCVG 190546Z 1906/2012 29013G20KT P6SM OVC035
      TEMPO 1906/1908 OVC028
     FM190800 30015G24KT P6SM OVC025
     FM191200 31015G25KT P6SM OVC015
     FM191600 33015G25KT P6SM BKN025
     FM191900 33013G23KT P6SM BKN040
     FM192100 32012G18KT P6SM SCT050
     FM200000 35008KT P6SM SKC=

USA.gov is the U.S. government's official web portal to all federal, state and local government web resources and services.